createdAt,value
2018-03-06T00:00:59.457Z,24.70
2018-03-06T00:01:59.549Z,24.00
2018-03-06T00:02:59.640Z,23.50
2018-03-06T00:03:59.728Z,22.40
2018-03-06T00:04:59.817Z,21.60
2018-03-06T00:05:59.906Z,20.10
2018-03-06T00:06:59.984Z,20.30
2018-03-06T00:08:00.083Z,20.10
2018-03-06T00:09:00.172Z,19.40
2018-03-06T00:10:00.260Z,19.30
2018-03-06T00:11:00.350Z,19.90
2018-03-06T00:12:00.440Z,21.10
2018-03-06T00:13:00.530Z,21.70
2018-03-06T00:14:00.610Z,22.00
2018-03-06T00:15:00.705Z,23.00
2018-03-06T00:16:00.809Z,22.60
2018-03-06T00:17:00.869Z,22.70
2018-03-06T00:18:00.962Z,22.30
2018-03-06T00:19:01.053Z,21.50
2018-03-06T00:20:01.146Z,20.10
2018-03-06T00:21:01.226Z,21.40
2018-03-06T00:22:01.316Z,20.80
2018-03-06T00:23:01.403Z,20.80
2018-03-06T00:24:01.493Z,21.90
2018-03-06T00:25:01.586Z,22.60
2018-03-06T00:26:01.691Z,21.70
2018-03-06T00:27:01.779Z,22.50
2018-03-06T00:28:01.861Z,21.20
2018-03-06T00:29:01.950Z,21.40
2018-03-06T00:30:02.042Z,21.00
2018-03-06T00:31:02.129Z,19.90
2018-03-06T00:32:02.230Z,21.20
2018-03-06T00:33:02.361Z,21.10
2018-03-06T00:34:02.395Z,20.40
2018-03-06T00:35:02.481Z,19.80
2018-03-06T00:36:02.577Z,21.20
2018-03-06T00:37:02.655Z,20.60
2018-03-06T00:38:02.744Z,22.80
2018-03-06T00:39:02.834Z,21.50
2018-03-06T00:40:02.922Z,20.40
2018-03-06T00:41:03.007Z,20.30
2018-03-06T00:42:03.099Z,20.80
2018-03-06T00:43:03.187Z,20.10
2018-03-06T00:44:03.275Z,20.00
2018-03-06T00:45:03.361Z,19.80
2018-03-06T00:46:03.449Z,19.60
2018-03-06T00:47:03.539Z,19.10
2018-03-06T00:48:03.627Z,20.10
2018-03-06T00:49:03.716Z,19.50
2018-03-06T00:50:03.812Z,19.10
2018-03-06T00:51:03.922Z,19.00
2018-03-06T00:52:04.025Z,18.80
2018-03-06T00:53:04.100Z,19.00
2018-03-06T00:54:04.185Z,18.90
2018-03-06T00:55:04.272Z,19.60
2018-03-06T00:56:04.362Z,19.70
2018-03-06T00:57:04.448Z,18.80
2018-03-06T00:58:04.541Z,19.60
2018-03-06T00:59:04.621Z,19.30
2018-03-06T01:00:04.714Z,19.30
2018-03-06T01:01:04.797Z,20.60
2018-03-06T01:02:04.891Z,20.70
2018-03-06T01:03:04.979Z,20.00
2018-03-06T01:04:05.064Z,20.10
2018-03-06T01:05:05.150Z,20.40
2018-03-06T01:06:05.236Z,20.80
2018-03-06T01:07:05.323Z,20.70
2018-03-06T01:08:05.411Z,20.90
2018-03-06T01:09:05.499Z,20.40
2018-03-06T01:10:05.581Z,20.30
2018-03-06T01:11:05.663Z,20.40
2018-03-06T01:12:05.750Z,20.50
2018-03-06T01:13:05.840Z,20.20
2018-03-06T01:14:05.927Z,20.50
2018-03-06T01:15:06.014Z,20.60
2018-03-06T01:16:06.099Z,20.40
2018-03-06T01:17:06.186Z,20.20
2018-03-06T01:18:06.274Z,20.40
2018-03-06T01:19:06.364Z,20.20
2018-03-06T01:20:06.453Z,20.60
2018-03-06T01:21:06.545Z,19.50
2018-03-06T01:22:06.628Z,19.80
2018-03-06T01:23:06.715Z,20.20
2018-03-06T01:24:06.802Z,20.80
2018-03-06T01:25:06.889Z,20.30
2018-03-06T01:26:06.984Z,20.60
2018-03-06T01:27:07.068Z,20.50
2018-03-06T01:28:07.172Z,20.40
2018-03-06T01:29:07.266Z,19.60
2018-03-06T01:30:07.355Z,19.80
2018-03-06T01:31:07.447Z,19.90
2018-03-06T01:32:07.534Z,20.30
2018-03-06T01:33:07.618Z,20.50
2018-03-06T01:34:07.712Z,20.50
2018-03-06T01:35:07.796Z,21.00
2018-03-06T01:36:07.887Z,20.70
2018-03-06T01:37:07.974Z,21.00
2018-03-06T01:38:08.060Z,20.80
2018-03-06T01:39:08.148Z,21.50
2018-03-06T01:40:08.238Z,20.60
2018-03-06T01:41:08.327Z,21.20
2018-03-06T01:42:08.414Z,21.20
2018-03-06T01:43:08.503Z,19.70
2018-03-06T01:44:08.588Z,20.80
2018-03-06T01:45:08.678Z,20.30
2018-03-06T01:46:08.767Z,20.20
2018-03-06T01:47:08.846Z,19.70
2018-03-06T01:48:08.946Z,19.60
2018-03-06T01:49:09.037Z,19.30
2018-03-06T01:50:09.125Z,19.00
2018-03-06T01:51:09.213Z,20.30
2018-03-06T01:52:09.300Z,20.90
2018-03-06T01:53:09.389Z,21.50
2018-03-06T01:54:09.477Z,21.00
2018-03-06T01:55:09.565Z,20.50
2018-03-06T01:56:09.652Z,20.50
2018-03-06T01:57:09.741Z,20.10
2018-03-06T01:58:09.830Z,20.00
2018-03-06T01:59:09.918Z,20.50
2018-03-06T02:00:10.010Z,19.90
2018-03-06T02:01:10.092Z,20.70
2018-03-06T02:02:10.179Z,19.70
2018-03-06T02:03:10.272Z,19.90
2018-03-06T02:04:10.358Z,19.20
2018-03-06T02:05:10.446Z,19.30
2018-03-06T02:06:10.537Z,19.10
2018-03-06T02:07:10.618Z,19.30
2018-03-06T02:08:10.709Z,19.00
2018-03-06T02:09:10.800Z,19.90
2018-03-06T02:10:10.890Z,19.10
2018-03-06T02:11:10.978Z,19.70
2018-03-06T02:12:11.065Z,19.90
2018-03-06T02:13:11.155Z,19.30
2018-03-06T02:14:11.245Z,19.70
2018-03-06T02:15:11.334Z,19.40
2018-03-06T02:16:11.421Z,18.60
2018-03-06T02:17:11.510Z,19.00
2018-03-06T02:18:11.601Z,19.90
2018-03-06T02:19:11.690Z,18.60
2018-03-06T02:20:11.778Z,19.10
2018-03-06T02:21:11.866Z,19.50
2018-03-06T02:22:11.961Z,19.50
2018-03-06T02:23:12.045Z,19.10
2018-03-06T02:24:12.129Z,19.10
2018-03-06T02:25:12.217Z,19.50
2018-03-06T02:26:12.304Z,20.10
2018-03-06T02:27:12.395Z,19.20
2018-03-06T02:28:12.486Z,19.10
2018-03-06T02:29:12.571Z,20.40
2018-03-06T02:30:12.672Z,19.40
2018-03-06T02:31:12.758Z,18.90
2018-03-06T02:32:12.850Z,19.90
2018-03-06T02:33:12.935Z,19.50
2018-03-06T02:34:13.022Z,19.40
2018-03-06T02:35:13.110Z,19.20
2018-03-06T02:36:13.203Z,20.50
2018-03-06T02:37:13.292Z,19.20
2018-03-06T02:38:13.378Z,19.80
2018-03-06T02:39:13.464Z,20.60
2018-03-06T02:40:13.554Z,21.30
2018-03-06T02:41:13.638Z,20.80
2018-03-06T02:42:13.725Z,20.30
2018-03-06T02:43:13.814Z,21.60
2018-03-06T02:44:13.905Z,19.50
2018-03-06T02:45:13.990Z,19.40
2018-03-06T02:46:14.080Z,20.20
2018-03-06T02:47:14.200Z,20.00
2018-03-06T02:48:14.253Z,20.00
2018-03-06T02:49:14.332Z,20.30
2018-03-06T02:50:14.420Z,19.10
2018-03-06T02:51:14.503Z,19.90
2018-03-06T02:52:14.591Z,19.30
2018-03-06T02:53:14.678Z,20.40
2018-03-06T02:54:14.769Z,19.40
2018-03-06T02:55:14.857Z,20.60
2018-03-06T02:56:14.942Z,19.60
2018-03-06T02:57:15.033Z,19.90
2018-03-06T02:58:15.118Z,19.80
2018-03-06T02:59:15.205Z,20.30
2018-03-06T03:00:15.291Z,18.90
2018-03-06T03:01:15.379Z,20.20
2018-03-06T03:02:15.467Z,19.10
2018-03-06T03:03:15.554Z,19.60
2018-03-06T03:04:15.639Z,19.30
2018-03-06T03:05:15.732Z,19.40
2018-03-06T03:06:15.820Z,19.80
2018-03-06T03:07:15.926Z,20.90
2018-03-06T03:08:16.010Z,20.40
2018-03-06T03:09:16.095Z,20.20
2018-03-06T03:10:16.187Z,20.00
2018-03-06T03:11:16.272Z,20.20
2018-03-06T03:12:16.362Z,20.80
2018-03-06T03:13:16.453Z,22.40
2018-03-06T03:14:16.540Z,20.80
2018-03-06T03:15:16.627Z,19.70
2018-03-06T03:16:16.714Z,19.90
2018-03-06T03:17:16.800Z,20.30
2018-03-06T03:18:16.888Z,20.40
2018-03-06T03:19:16.978Z,19.60
2018-03-06T03:20:17.066Z,20.60
2018-03-06T03:21:17.153Z,20.00
2018-03-06T03:22:17.243Z,20.20
2018-03-06T03:23:17.330Z,20.40
2018-03-06T03:24:17.413Z,20.60
2018-03-06T03:25:17.499Z,20.40
2018-03-06T03:26:17.581Z,20.80
2018-03-06T03:27:17.666Z,20.90
2018-03-06T03:28:17.760Z,21.10
2018-03-06T03:29:17.842Z,20.00
2018-03-06T03:30:17.932Z,20.30
2018-03-06T03:31:18.012Z,20.70
2018-03-06T03:32:18.093Z,19.50
2018-03-06T03:33:18.177Z,19.20
2018-03-06T03:34:18.270Z,20.40
2018-03-06T03:35:18.357Z,20.10
2018-03-06T03:36:18.447Z,19.40
2018-03-06T03:37:18.533Z,19.40
2018-03-06T03:38:18.616Z,20.40
2018-03-06T03:39:18.706Z,20.00
2018-03-06T03:40:18.794Z,20.20
2018-03-06T03:41:18.881Z,19.90
2018-03-06T03:42:18.985Z,20.00
2018-03-06T03:43:19.055Z,20.50
2018-03-06T03:44:19.144Z,19.70
2018-03-06T03:45:19.230Z,19.30
2018-03-06T03:46:19.319Z,20.20
2018-03-06T03:47:19.406Z,19.90
2018-03-06T03:48:19.496Z,19.50
2018-03-06T03:49:19.604Z,19.40
2018-03-06T03:50:19.697Z,19.30
2018-03-06T03:51:19.783Z,20.00
2018-03-06T03:52:19.871Z,19.20
2018-03-06T03:53:19.958Z,19.50
2018-03-06T03:54:20.045Z,20.30
2018-03-06T03:55:20.133Z,19.70
2018-03-06T03:56:20.219Z,20.40
2018-03-06T03:57:20.308Z,20.10
2018-03-06T03:58:20.392Z,20.00
2018-03-06T03:59:20.482Z,19.90
2018-03-06T04:00:20.572Z,19.60
2018-03-06T04:01:20.661Z,19.40
2018-03-06T04:02:20.750Z,19.80
2018-03-06T04:03:20.835Z,19.40
2018-03-06T04:04:20.920Z,19.40
2018-03-06T04:05:21.005Z,20.20
2018-03-06T04:06:21.093Z,19.10
2018-03-06T04:07:21.179Z,19.70
2018-03-06T04:08:21.270Z,19.50
2018-03-06T04:09:21.362Z,18.60
2018-03-06T04:10:21.440Z,19.50
2018-03-06T04:11:21.524Z,18.20
2018-03-06T04:12:21.609Z,20.10
2018-03-06T04:13:21.696Z,19.90
2018-03-06T04:14:21.784Z,19.80
2018-03-06T04:15:21.863Z,19.60
2018-03-06T04:16:21.961Z,19.60
2018-03-06T04:17:22.049Z,19.70
2018-03-06T04:18:22.137Z,19.10
2018-03-06T04:19:22.224Z,19.80
2018-03-06T04:20:22.312Z,19.00
2018-03-06T04:21:22.403Z,21.00
2018-03-06T04:22:22.488Z,20.10
2018-03-06T04:23:22.579Z,21.60
2018-03-06T04:24:22.720Z,21.80
2018-03-06T04:25:22.754Z,22.00
2018-03-06T04:26:22.843Z,21.90
2018-03-06T04:27:22.943Z,21.70
2018-03-06T04:28:23.032Z,21.40
2018-03-06T04:29:23.119Z,22.90
2018-03-06T04:30:23.206Z,36.00
2018-03-06T04:31:23.295Z,44.80
2018-03-06T04:32:23.387Z,32.80
2018-03-06T04:33:23.478Z,25.70
2018-03-06T04:34:23.565Z,28.10
2018-03-06T04:35:23.653Z,27.80
2018-03-06T04:36:23.740Z,31.30
2018-03-06T04:37:23.832Z,32.60
2018-03-06T04:38:23.918Z,35.00
2018-03-06T04:39:24.009Z,35.00
2018-03-06T04:40:24.096Z,35.70
2018-03-06T04:41:24.180Z,34.70
2018-03-06T04:42:24.266Z,35.40
2018-03-06T04:43:24.359Z,33.20
2018-03-06T04:44:24.448Z,30.70
2018-03-06T04:45:24.535Z,31.10
2018-03-06T04:46:24.623Z,30.70
2018-03-06T04:47:24.710Z,29.20
2018-03-06T04:48:24.797Z,29.10
2018-03-06T04:49:24.885Z,28.70
2018-03-06T04:50:24.969Z,30.00
2018-03-06T04:51:25.059Z,32.10
2018-03-06T04:52:25.148Z,33.10
2018-03-06T04:53:25.233Z,33.60
2018-03-06T04:54:25.405Z,35.00
2018-03-06T04:55:25.411Z,33.60
2018-03-06T04:56:25.503Z,30.80
2018-03-06T04:57:25.595Z,31.60
2018-03-06T04:58:25.688Z,32.10
2018-03-06T04:59:25.777Z,31.10
2018-03-06T05:00:25.865Z,29.70
2018-03-06T05:01:25.955Z,30.20
2018-03-06T05:02:26.042Z,29.60
2018-03-06T05:03:26.129Z,30.50
2018-03-06T05:04:26.217Z,28.40
2018-03-06T05:05:26.307Z,29.10
2018-03-06T05:06:26.396Z,29.40
2018-03-06T05:07:26.486Z,28.90
2018-03-06T05:08:26.578Z,27.10
2018-03-06T05:09:26.694Z,28.70
2018-03-06T05:10:26.752Z,27.70
2018-03-06T05:11:26.836Z,28.70
2018-03-06T05:12:26.919Z,29.00
2018-03-06T05:13:27.010Z,29.20
2018-03-06T05:14:27.099Z,29.40
2018-03-06T05:15:27.191Z,29.40
2018-03-06T05:16:27.280Z,29.40
2018-03-06T05:17:27.365Z,29.40
2018-03-06T05:18:27.451Z,27.80
2018-03-06T05:19:27.542Z,29.50
2018-03-06T05:20:27.628Z,28.00
2018-03-06T05:21:27.719Z,28.90
2018-03-06T05:22:27.809Z,28.00
2018-03-06T05:23:27.920Z,28.60
2018-03-06T05:24:28.008Z,29.30
2018-03-06T05:25:28.100Z,29.20
2018-03-06T05:26:28.191Z,29.20
2018-03-06T05:27:28.278Z,28.80
2018-03-06T05:28:28.370Z,30.20
2018-03-06T05:29:28.457Z,30.50
2018-03-06T05:30:28.548Z,30.90
2018-03-06T05:31:28.632Z,29.70
2018-03-06T05:32:28.720Z,31.20
2018-03-06T05:33:28.810Z,31.20
2018-03-06T05:34:28.894Z,31.90
2018-03-06T05:35:28.984Z,31.90
2018-03-06T05:36:29.070Z,32.40
2018-03-06T05:37:29.154Z,32.80
2018-03-06T05:38:29.247Z,34.50
2018-03-06T05:39:29.333Z,35.00
2018-03-06T05:40:29.420Z,34.60
2018-03-06T05:41:29.509Z,35.40
2018-03-06T05:42:29.591Z,35.00
2018-03-06T05:43:29.684Z,35.70
2018-03-06T05:44:29.776Z,34.80
2018-03-06T05:45:29.862Z,33.20
2018-03-06T05:46:29.952Z,33.30
2018-03-06T05:47:30.039Z,32.60
2018-03-06T05:48:30.128Z,32.30
2018-03-06T05:49:30.217Z,31.20
2018-03-06T05:50:30.307Z,29.90
2018-03-06T05:51:30.395Z,30.40
2018-03-06T05:52:30.487Z,29.10
2018-03-06T05:53:30.574Z,29.00
2018-03-06T05:54:30.669Z,28.20
2018-03-06T05:55:30.759Z,29.80
2018-03-06T05:56:30.849Z,28.20
2018-03-06T05:57:30.934Z,29.30
2018-03-06T05:58:31.021Z,30.40
2018-03-06T05:59:31.115Z,28.40
2018-03-06T06:00:31.203Z,30.10
2018-03-06T06:01:31.293Z,28.20
2018-03-06T06:02:31.382Z,28.50
2018-03-06T06:03:31.472Z,27.20
2018-03-06T06:04:31.561Z,29.00
2018-03-06T06:05:31.653Z,28.60
2018-03-06T06:06:31.745Z,28.80
2018-03-06T06:07:31.825Z,28.90
2018-03-06T06:08:31.909Z,28.90
2018-03-06T06:09:32.001Z,29.00
2018-03-06T06:10:32.090Z,29.70
2018-03-06T06:11:32.181Z,29.30
2018-03-06T06:12:32.270Z,29.10
2018-03-06T06:13:32.396Z,29.70
2018-03-06T06:14:32.452Z,29.30
2018-03-06T06:15:32.541Z,29.50
2018-03-06T06:16:32.632Z,28.10
2018-03-06T06:17:32.725Z,29.30
2018-03-06T06:18:32.813Z,28.20
2018-03-06T06:19:32.903Z,29.00
2018-03-06T06:20:32.993Z,28.10
2018-03-06T06:21:33.086Z,28.10
2018-03-06T06:22:33.174Z,28.90
2018-03-06T06:23:33.263Z,28.80
2018-03-06T06:24:33.365Z,30.00
2018-03-06T06:25:33.443Z,31.10
2018-03-06T06:26:33.531Z,31.60
2018-03-06T06:27:33.625Z,31.10
2018-03-06T06:28:33.709Z,29.40
2018-03-06T06:29:33.799Z,29.10
2018-03-06T06:30:33.888Z,29.90
2018-03-06T06:31:33.978Z,31.80
2018-03-06T06:32:34.061Z,31.80
2018-03-06T06:33:34.157Z,28.50
2018-03-06T06:34:34.248Z,28.70
2018-03-06T06:35:34.334Z,28.60
2018-03-06T06:36:34.423Z,30.20
2018-03-06T06:37:34.513Z,29.20
2018-03-06T06:38:34.606Z,29.00
2018-03-06T06:39:34.692Z,29.90
2018-03-06T06:40:34.786Z,31.90
2018-03-06T06:41:34.874Z,30.40
2018-03-06T06:42:34.963Z,30.70
2018-03-06T06:43:35.056Z,30.80
2018-03-06T06:44:35.134Z,31.20
2018-03-06T06:45:35.235Z,29.60
2018-03-06T06:46:35.324Z,29.30
2018-03-06T06:47:35.420Z,29.90
2018-03-06T06:48:35.502Z,29.40
2018-03-06T06:49:35.595Z,29.80
2018-03-06T06:50:35.681Z,30.30
2018-03-06T06:51:35.768Z,30.20
2018-03-06T06:52:35.856Z,30.20
2018-03-06T06:53:35.945Z,29.70
2018-03-06T06:54:36.033Z,30.60
2018-03-06T06:55:36.124Z,30.50
2018-03-06T06:56:36.211Z,31.00
2018-03-06T06:57:36.316Z,30.80
2018-03-06T06:58:36.427Z,31.40
2018-03-06T06:59:36.481Z,30.30
2018-03-06T07:00:36.573Z,30.20
2018-03-06T07:01:36.659Z,29.90
2018-03-06T07:02:36.749Z,33.40
2018-03-06T07:03:36.865Z,30.90
2018-03-06T07:04:36.949Z,31.80
2018-03-06T07:05:37.038Z,30.00
2018-03-06T07:06:37.129Z,31.90
2018-03-06T07:07:37.215Z,31.30
2018-03-06T07:08:37.312Z,31.20
2018-03-06T07:09:37.394Z,31.70
2018-03-06T07:10:37.483Z,32.30
2018-03-06T07:11:37.574Z,33.80
2018-03-06T07:12:37.663Z,32.80
2018-03-06T07:13:37.751Z,32.50
2018-03-06T07:14:37.842Z,31.90
2018-03-06T07:15:37.930Z,31.60
2018-03-06T07:16:38.030Z,30.70
2018-03-06T07:17:38.135Z,30.60
2018-03-06T07:18:38.227Z,31.60
2018-03-06T07:19:38.316Z,31.50
2018-03-06T07:20:38.407Z,31.80
2018-03-06T07:21:38.497Z,31.80
2018-03-06T07:22:38.594Z,31.90
2018-03-06T07:23:38.683Z,31.80
2018-03-06T07:24:38.773Z,31.50
2018-03-06T07:25:38.858Z,32.40
2018-03-06T07:26:38.954Z,32.50
2018-03-06T07:27:39.042Z,31.90
2018-03-06T07:28:39.138Z,31.60
2018-03-06T07:29:39.238Z,29.60
2018-03-06T07:30:39.313Z,31.60
2018-03-06T07:31:39.405Z,30.60
2018-03-06T07:32:39.493Z,30.40
2018-03-06T07:33:39.575Z,30.80
2018-03-06T07:34:39.682Z,29.30
2018-03-06T07:35:39.785Z,31.10
2018-03-06T07:36:39.846Z,30.70
2018-03-06T07:37:39.936Z,31.00
2018-03-06T07:38:40.026Z,31.80
2018-03-06T07:39:40.116Z,32.00
2018-03-06T07:40:40.208Z,32.10
2018-03-06T07:41:40.296Z,32.00
2018-03-06T07:42:40.385Z,31.60
2018-03-06T07:43:40.475Z,30.70
2018-03-06T07:44:40.561Z,31.30
2018-03-06T07:45:40.656Z,33.10
2018-03-06T07:46:40.747Z,30.60
2018-03-06T07:47:40.835Z,31.70
2018-03-06T07:48:40.924Z,32.40
2018-03-06T07:49:41.013Z,32.50
2018-03-06T07:50:41.104Z,32.60
2018-03-06T07:51:41.197Z,32.90
2018-03-06T07:52:41.284Z,32.70
2018-03-06T07:53:41.373Z,33.30
2018-03-06T07:54:41.485Z,33.30
2018-03-06T07:55:41.575Z,33.30
2018-03-06T07:56:41.719Z,34.10
2018-03-06T07:57:41.744Z,33.10
2018-03-06T07:58:41.840Z,33.80
2018-03-06T07:59:41.931Z,34.20
2018-03-06T08:00:42.021Z,33.10
2018-03-06T08:01:42.111Z,35.00
2018-03-06T08:02:42.201Z,33.80
2018-03-06T08:03:42.291Z,34.20
2018-03-06T08:04:42.379Z,35.00
2018-03-06T08:05:42.469Z,34.10
2018-03-06T08:06:42.559Z,35.70
2018-03-06T08:07:42.648Z,36.00
2018-03-06T08:08:42.734Z,36.00
2018-03-06T08:09:42.825Z,35.30
2018-03-06T08:10:42.919Z,38.20
2018-03-06T08:11:43.061Z,34.70
2018-03-06T08:12:43.094Z,34.20
2018-03-06T08:13:43.189Z,33.60
2018-03-06T08:14:43.281Z,33.80
2018-03-06T08:15:43.372Z,34.00
2018-03-06T08:16:43.461Z,33.70
2018-03-06T08:17:43.551Z,34.30
2018-03-06T08:18:43.638Z,33.70
2018-03-06T08:19:43.738Z,33.70
2018-03-06T08:20:43.829Z,34.00
2018-03-06T08:21:43.918Z,33.40
2018-03-06T08:22:44.009Z,33.50
2018-03-06T08:23:44.097Z,31.40
2018-03-06T08:24:44.192Z,31.30
2018-03-06T08:25:44.286Z,33.30
2018-03-06T08:26:44.369Z,33.70
2018-03-06T08:27:44.460Z,34.50
2018-03-06T08:28:44.548Z,33.30
2018-03-06T08:29:44.636Z,34.80
2018-03-06T08:30:44.724Z,34.20
2018-03-06T08:31:44.814Z,33.20
2018-03-06T08:32:44.895Z,33.30
2018-03-06T08:33:44.985Z,36.10
2018-03-06T08:34:45.077Z,36.30
2018-03-06T08:35:45.167Z,36.10
2018-03-06T08:36:45.259Z,36.00
2018-03-06T08:37:45.347Z,35.80
2018-03-06T08:38:45.440Z,36.30
2018-03-06T08:39:45.530Z,36.50
2018-03-06T08:40:45.622Z,37.50
2018-03-06T08:41:45.713Z,36.90
2018-03-06T08:42:45.803Z,35.10
2018-03-06T08:43:45.897Z,34.80
2018-03-06T08:44:45.987Z,34.70
2018-03-06T08:45:46.079Z,34.70
2018-03-06T08:46:46.169Z,35.70
2018-03-06T08:47:46.263Z,34.70
2018-03-06T08:48:46.352Z,33.70
2018-03-06T08:49:46.442Z,34.60
2018-03-06T08:50:46.529Z,34.30
2018-03-06T08:51:46.618Z,33.60
2018-03-06T08:52:46.711Z,33.40
2018-03-06T08:53:46.799Z,34.30
2018-03-06T08:54:46.894Z,33.10
2018-03-06T08:55:46.988Z,34.40
2018-03-06T08:56:47.078Z,33.30
2018-03-06T08:57:47.177Z,32.50
2018-03-06T08:58:47.258Z,32.60
2018-03-06T08:59:47.346Z,33.20
2018-03-06T09:00:47.436Z,34.30
2018-03-06T09:01:47.526Z,33.50
2018-03-06T09:02:47.631Z,34.30
2018-03-06T09:03:47.734Z,33.90
2018-03-06T09:04:47.811Z,33.20
2018-03-06T09:05:47.911Z,33.60
2018-03-06T09:06:48.002Z,32.60
2018-03-06T09:07:48.092Z,33.00
2018-03-06T09:08:48.247Z,33.60
2018-03-06T09:09:48.270Z,33.50
2018-03-06T09:10:48.364Z,35.00
2018-03-06T09:11:48.449Z,33.90
2018-03-06T09:12:48.542Z,33.40
2018-03-06T09:13:48.637Z,34.70
2018-03-06T09:14:48.729Z,35.20
2018-03-06T09:15:48.822Z,33.10
2018-03-06T09:16:48.913Z,34.10
2018-03-06T09:17:49.001Z,34.90
2018-03-06T09:18:49.089Z,35.70
2018-03-06T09:19:49.179Z,35.70
2018-03-06T09:20:49.269Z,39.90
2018-03-06T09:21:49.351Z,51.30
2018-03-06T09:22:49.450Z,35.50
2018-03-06T09:23:49.545Z,35.80
2018-03-06T09:24:49.640Z,35.00
2018-03-06T09:25:49.720Z,34.90
2018-03-06T09:26:49.813Z,35.20
2018-03-06T09:27:49.899Z,35.00
2018-03-06T09:28:49.990Z,34.10
2018-03-06T09:29:50.079Z,34.30
2018-03-06T09:30:50.176Z,35.20
2018-03-06T09:31:50.261Z,35.50
2018-03-06T09:32:50.351Z,35.30
2018-03-06T09:33:50.442Z,35.80
2018-03-06T09:34:50.535Z,36.10
2018-03-06T09:35:50.619Z,36.50
2018-03-06T09:36:50.726Z,36.50
2018-03-06T09:37:50.816Z,36.70
2018-03-06T09:38:50.906Z,36.90
2018-03-06T09:39:50.997Z,35.80
2018-03-06T09:40:51.086Z,36.80
2018-03-06T09:41:51.194Z,37.30
2018-03-06T09:42:51.288Z,36.10
2018-03-06T09:43:51.379Z,35.70
2018-03-06T09:44:51.469Z,36.80
2018-03-06T09:45:51.559Z,37.10
2018-03-06T09:46:51.648Z,37.20
2018-03-06T09:47:51.740Z,37.00
2018-03-06T09:48:51.836Z,35.70
2018-03-06T09:49:51.927Z,34.80
2018-03-06T09:50:52.025Z,35.40
2018-03-06T09:51:52.115Z,35.50
2018-03-06T09:52:52.207Z,35.70
2018-03-06T09:53:52.301Z,36.00
2018-03-06T09:54:52.413Z,35.40
2018-03-06T09:55:52.511Z,37.10
2018-03-06T09:56:52.605Z,36.00
2018-03-06T09:57:52.698Z,36.10
2018-03-06T09:58:52.790Z,35.60
2018-03-06T09:59:52.881Z,36.20
2018-03-06T10:00:52.974Z,37.40
2018-03-06T10:01:53.056Z,37.10
2018-03-06T10:02:53.145Z,37.20
2018-03-06T17:40:50.400Z,34.70
2018-03-06T17:41:50.495Z,39.50
2018-03-06T17:42:50.581Z,39.20
2018-03-06T17:43:50.678Z,39.80
2018-03-06T17:44:50.768Z,36.70
2018-03-06T17:45:50.865Z,36.30
2018-03-06T17:46:50.993Z,35.60
2018-03-06T17:47:51.051Z,40.70
2018-03-06T17:48:51.143Z,42.60
2018-03-06T17:49:51.258Z,41.90
2018-03-06T17:50:51.329Z,40.50
2018-03-06T17:51:51.425Z,40.10
2018-03-06T17:52:51.514Z,39.80
2018-03-06T17:53:51.610Z,37.40
2018-03-06T17:54:51.701Z,38.20
2018-03-06T17:55:51.793Z,37.40
2018-03-06T17:56:51.890Z,35.30
2018-03-06T17:57:51.985Z,36.90
2018-03-06T17:58:52.076Z,36.20
2018-03-06T17:59:52.177Z,35.20
2018-03-06T18:00:52.267Z,34.80
2018-03-06T18:01:52.358Z,34.50
2018-03-06T18:02:52.451Z,35.20
2018-03-06T18:03:52.580Z,34.60
2018-03-06T18:04:52.636Z,35.60
2018-03-06T18:05:52.737Z,38.50
2018-03-06T18:06:52.833Z,49.50
2018-03-06T18:07:52.924Z,50.60
2018-03-06T18:08:53.019Z,58.90
2018-03-06T18:09:53.115Z,72.50
2018-03-06T18:10:53.210Z,70.60
2018-03-06T18:11:53.303Z,70.40
2018-03-06T18:12:53.395Z,68.40
2018-03-06T18:13:53.490Z,59.20
2018-03-06T18:14:53.583Z,50.50
2018-03-06T18:15:53.676Z,46.70
2018-03-06T18:16:53.777Z,42.60
2018-03-06T18:17:53.888Z,40.70
2018-03-06T18:18:53.982Z,40.10
2018-03-06T18:19:54.074Z,39.60
2018-03-06T18:20:54.160Z,37.50
2018-03-06T18:21:54.255Z,37.60
2018-03-06T18:22:54.344Z,38.60
2018-03-06T18:23:54.437Z,39.00
2018-03-06T18:24:54.531Z,40.40
2018-03-06T18:25:54.624Z,40.10
2018-03-06T18:26:54.720Z,40.90
2018-03-06T18:27:54.812Z,40.50
2018-03-06T18:28:54.907Z,44.40
2018-03-06T18:29:55.003Z,46.90
2018-03-06T18:30:55.095Z,43.20
2018-03-06T18:31:55.185Z,39.70
2018-03-06T18:32:55.279Z,37.90
2018-03-06T18:33:55.375Z,37.20
2018-03-06T18:34:55.463Z,35.90
2018-03-06T18:35:55.561Z,35.20
2018-03-06T18:36:55.702Z,35.70
2018-03-06T18:37:55.745Z,35.30
2018-03-06T18:38:55.839Z,36.60
2018-03-06T18:39:55.929Z,36.60
2018-03-06T18:40:56.020Z,37.50
2018-03-06T18:41:56.114Z,36.80
2018-03-06T18:42:56.206Z,37.80
2018-03-06T18:43:56.297Z,37.20
2018-03-06T18:44:56.397Z,36.50
2018-03-06T18:45:56.485Z,38.90
2018-03-06T18:46:56.577Z,37.50
2018-03-06T18:47:56.672Z,36.70
2018-03-06T18:48:56.777Z,37.50
2018-03-06T18:49:56.870Z,36.90
2018-03-06T18:50:56.961Z,36.30
2018-03-06T18:51:57.052Z,37.00
2018-03-06T18:52:57.146Z,37.40
2018-03-06T18:53:57.237Z,38.60
2018-03-06T18:54:57.337Z,37.40
2018-03-06T18:55:57.424Z,37.70
2018-03-06T18:56:57.521Z,38.90
2018-03-06T18:57:57.613Z,38.70
2018-03-06T18:58:57.707Z,38.10
2018-03-06T18:59:57.799Z,38.30
2018-03-06T19:00:57.893Z,37.20
2018-03-06T19:01:57.993Z,37.20
2018-03-06T19:02:58.085Z,36.60
2018-03-06T19:03:58.175Z,37.80
2018-03-06T19:04:58.266Z,37.90
2018-03-06T19:05:58.356Z,37.60
2018-03-06T19:06:58.446Z,37.30
2018-03-06T19:07:58.532Z,37.50
2018-03-06T19:08:58.640Z,36.80
2018-03-06T19:09:58.712Z,38.30
2018-03-06T19:10:58.805Z,38.40
2018-03-06T19:11:58.896Z,37.10
2018-03-06T19:12:58.999Z,38.70
2018-03-06T19:13:59.079Z,38.30
2018-03-06T19:14:59.181Z,39.90
2018-03-06T19:15:59.269Z,38.00
2018-03-06T19:16:59.358Z,38.80
2018-03-06T19:17:59.447Z,40.10
2018-03-06T19:18:59.544Z,41.50
2018-03-06T19:19:59.634Z,42.40
2018-03-06T19:20:59.737Z,42.00
2018-03-06T19:21:59.827Z,40.00
2018-03-06T19:22:59.916Z,38.10
2018-03-06T19:24:00.011Z,36.90
2018-03-06T19:25:00.130Z,38.30
2018-03-06T19:26:00.196Z,37.90
2018-03-06T19:27:00.291Z,38.00
2018-03-06T19:28:00.387Z,36.90
2018-03-06T19:29:00.476Z,37.40
2018-03-06T19:30:00.569Z,37.60
2018-03-06T19:31:00.668Z,40.20
2018-03-06T19:32:00.747Z,40.40
2018-03-06T19:33:00.838Z,38.80
2018-03-06T19:34:00.946Z,39.00
2018-03-06T19:35:01.035Z,37.90
2018-03-06T19:36:01.125Z,38.30
2018-03-06T19:37:01.217Z,40.10
2018-03-06T19:38:01.308Z,38.00
2018-03-06T19:39:01.396Z,38.80
2018-03-06T19:40:01.493Z,38.80
2018-03-06T19:41:01.584Z,38.10
2018-03-06T19:42:01.675Z,38.50
2018-03-06T19:43:01.765Z,38.80
2018-03-06T19:44:01.871Z,40.10
2018-03-06T19:45:01.952Z,39.60
2018-03-06T19:46:02.043Z,40.40
2018-03-06T19:47:02.131Z,38.50
2018-03-06T19:48:02.224Z,40.90
2018-03-06T19:49:02.317Z,41.60
2018-03-06T19:50:02.403Z,42.50
2018-03-06T19:51:02.497Z,42.20
2018-03-06T19:52:02.588Z,43.10
2018-03-06T19:53:02.688Z,41.70
2018-03-06T19:54:02.777Z,43.20
2018-03-06T19:55:02.870Z,41.00
2018-03-06T19:56:02.959Z,42.40
2018-03-06T19:57:03.052Z,41.10
2018-03-06T19:58:03.158Z,41.90
2018-03-06T19:59:03.239Z,41.70
2018-03-06T20:00:03.318Z,40.10
2018-03-06T20:01:03.410Z,39.40
2018-03-06T20:02:03.498Z,41.00
2018-03-06T20:03:03.591Z,38.90
2018-03-06T20:04:03.683Z,39.60
2018-03-06T20:05:03.774Z,38.70
2018-03-06T20:06:03.866Z,38.30
2018-03-06T20:07:03.955Z,38.10
2018-03-06T20:08:04.049Z,37.10
2018-03-06T20:09:04.133Z,37.50
2018-03-06T20:10:04.223Z,38.30
2018-03-06T20:11:04.309Z,36.90
2018-03-06T20:12:04.397Z,37.70
2018-03-06T20:13:04.491Z,36.80
2018-03-06T20:14:04.585Z,38.50
2018-03-06T20:15:04.682Z,38.90
2018-03-06T20:16:04.768Z,37.80
2018-03-06T20:17:04.941Z,38.70
2018-03-06T20:18:04.956Z,39.30
2018-03-06T20:19:05.054Z,39.50
2018-03-06T20:20:05.141Z,38.20
2018-03-06T20:21:05.231Z,39.50
2018-03-06T20:22:05.317Z,36.70
2018-03-06T20:23:05.413Z,39.30
2018-03-06T20:24:05.502Z,38.50
2018-03-06T20:25:05.604Z,38.80
2018-03-06T20:26:05.688Z,39.00
2018-03-06T20:27:05.781Z,39.10
2018-03-06T20:28:05.871Z,39.10
2018-03-06T20:29:05.963Z,37.70
2018-03-06T20:30:06.067Z,37.30
2018-03-06T20:31:06.151Z,37.70